sensor_id;sensor_type;location;lat;lon;timestamp;temperature;humidity
1137;DHT22;557;48.466;7.950;2023-03-25T00:01:04;9.50;24.40
1137;DHT22;557;48.466;7.950;2023-03-25T00:03:54;9.40;1.00
1137;DHT22;557;48.466;7.950;2023-03-25T00:06:41;9.40;1.00
1137;DHT22;557;48.466;7.950;2023-03-25T00:09:30;9.30;1.00
1137;DHT22;557;48.466;7.950;2023-03-25T00:12:19;9.30;1.00
1137;DHT22;557;48.466;7.950;2023-03-25T00:15:08;9.30;1.00
1137;DHT22;557;48.466;7.950;2023-03-25T00:17:57;9.30;1.00
1137;DHT22;557;48.466;7.950;2023-03-25T00:20:44;9.20;44.70
1137;DHT22;557;48.466;7.950;2023-03-25T00:23:34;9.20;89.50
1137;DHT22;557;48.466;7.950;2023-03-25T00:26:21;9.20;99.90
1137;DHT22;557;48.466;7.950;2023-03-25T00:29:09;9.20;99.90
1137;DHT22;557;48.466;7.950;2023-03-25T00:31:56;9.30;73.10
1137;DHT22;557;48.466;7.950;2023-03-25T00:34:45;9.40;36.70
1137;DHT22;557;48.466;7.950;2023-03-25T00:37:33;9.40;44.70
1137;DHT22;557;48.466;7.950;2023-03-25T00:40:20;9.30;83.30
1137;DHT22;557;48.466;7.950;2023-03-25T00:43:09;9.30;99.90
1137;DHT22;557;48.466;7.950;2023-03-25T00:45:57;9.20;99.90
1137;DHT22;557;48.466;7.950;2023-03-25T00:48:44;9.20;99.90
1137;DHT22;557;48.466;7.950;2023-03-25T00:51:33;9.20;99.90
1137;DHT22;557;48.466;7.950;2023-03-25T00:54:20;9.20;99.90
1137;DHT22;557;48.466;7.950;2023-03-25T00:57:08;9.20;99.90
1137;DHT22;557;48.466;7.950;2023-03-25T00:59:55;9.20;99.90
1137;DHT22;557;48.466;7.950;2023-03-25T01:02:43;9.20;99.90
1137;DHT22;557;48.466;7.950;2023-03-25T01:05:30;9.20;99.90
1137;DHT22;557;48.466;7.950;2023-03-25T01:08:19;9.20;99.90
1137;DHT22;557;48.466;7.950;2023-03-25T01:11:17;9.20;99.90
1137;DHT22;557;48.466;7.950;2023-03-25T01:14:08;9.10;99.90
1137;DHT22;557;48.466;7.950;2023-03-25T01:16:58;9.10;99.90
1137;DHT22;557;48.466;7.950;2023-03-25T01:19:45;9.10;99.90
1137;DHT22;557;48.466;7.950;2023-03-25T01:22:32;9.10;90.60
1137;DHT22;557;48.466;7.950;2023-03-25T01:25:21;9.10;69.60
1137;DHT22;557;48.466;7.950;2023-03-25T01:28:09;9.00;94.70
1137;DHT22;557;48.466;7.950;2023-03-25T01:30:59;8.90;61.70
1137;DHT22;557;48.466;7.950;2023-03-25T01:33:47;8.90;53.30
1137;DHT22;557;48.466;7.950;2023-03-25T01:36:34;8.90;59.40
1137;DHT22;557;48.466;7.950;2023-03-25T01:39:22;8.90;10.50
1137;DHT22;557;48.466;7.950;2023-03-25T01:42:11;9.00;32.60
1137;DHT22;557;48.466;7.950;2023-03-25T01:45:19;8.90;70.20
1137;DHT22;557;48.466;7.950;2023-03-25T01:48:09;8.80;99.90
1137;DHT22;557;48.466;7.950;2023-03-25T01:51:04;8.50;99.90
1137;DHT22;557;48.466;7.950;2023-03-25T01:53:52;8.30;99.90
1137;DHT22;557;48.466;7.950;2023-03-25T01:56:40;8.10;99.90
1137;DHT22;557;48.466;7.950;2023-03-25T01:59:29;7.90;99.90
1137;DHT22;557;48.466;7.950;2023-03-25T02:02:18;7.70;99.90
1137;DHT22;557;48.466;7.950;2023-03-25T02:05:09;7.40;99.90
1137;DHT22;557;48.466;7.950;2023-03-25T02:08:01;7.40;99.90
1137;DHT22;557;48.466;7.950;2023-03-25T02:10:51;7.30;99.90
1137;DHT22;557;48.466;7.950;2023-03-25T02:13:40;7.20;99.90
1137;DHT22;557;48.466;7.950;2023-03-25T02:16:36;7.20;99.90
1137;DHT22;557;48.466;7.950;2023-03-25T02:19:55;7.20;99.90
1137;DHT22;557;48.466;7.950;2023-03-25T02:30:10;7.00;99.90
1137;DHT22;557;48.466;7.950;2023-03-25T02:36:46;7.00;99.90
1137;DHT22;557;48.466;7.950;2023-03-25T02:39:46;7.00;99.90
1137;DHT22;557;48.466;7.950;2023-03-25T02:42:39;7.00;99.90
1137;DHT22;557;48.466;7.950;2023-03-25T02:45:31;7.10;99.90
1137;DHT22;557;48.466;7.950;2023-03-25T02:48:22;7.20;99.90
1137;DHT22;557;48.466;7.950;2023-03-25T02:51:15;7.30;99.90
1137;DHT22;557;48.466;7.950;2023-03-25T02:54:08;7.40;99.90
1137;DHT22;557;48.466;7.950;2023-03-25T02:56:59;7.40;99.90
1137;DHT22;557;48.466;7.950;2023-03-25T02:59:48;7.50;99.90
1137;DHT22;557;48.466;7.950;2023-03-25T03:02:39;7.60;99.90
1137;DHT22;557;48.466;7.950;2023-03-25T03:05:29;7.60;99.90
1137;DHT22;557;48.466;7.950;2023-03-25T03:08:25;7.60;99.90
1137;DHT22;557;48.466;7.950;2023-03-25T03:11:19;7.80;99.90
1137;DHT22;557;48.466;7.950;2023-03-25T03:14:22;7.90;99.90
1137;DHT22;557;48.466;7.950;2023-03-25T03:17:18;7.90;99.90
1137;DHT22;557;48.466;7.950;2023-03-25T03:20:15;7.80;99.90
1137;DHT22;557;48.466;7.950;2023-03-25T03:23:08;7.90;99.90
1137;DHT22;557;48.466;7.950;2023-03-25T03:26:04;8.00;99.90
1137;DHT22;557;48.466;7.950;2023-03-25T03:29:00;8.00;99.90
1137;DHT22;557;48.466;7.950;2023-03-25T03:31:57;8.10;99.90
1137;DHT22;557;48.466;7.950;2023-03-25T03:34:47;8.20;99.90
1137;DHT22;557;48.466;7.950;2023-03-25T03:37:39;8.20;99.90
1137;DHT22;557;48.466;7.950;2023-03-25T03:40:30;8.20;99.90
1137;DHT22;557;48.466;7.950;2023-03-25T03:43:22;8.20;99.90
1137;DHT22;557;48.466;7.950;2023-03-25T03:46:15;8.20;99.90
1137;DHT22;557;48.466;7.950;2023-03-25T03:49:09;8.10;99.90
1137;DHT22;557;48.466;7.950;2023-03-25T03:52:00;8.10;99.90
1137;DHT22;557;48.466;7.950;2023-03-25T03:54:53;8.10;99.90
1137;DHT22;557;48.466;7.950;2023-03-25T03:57:45;8.00;99.90
1137;DHT22;557;48.466;7.950;2023-03-25T04:00:37;8.00;99.90
1137;DHT22;557;48.466;7.950;2023-03-25T04:03:29;8.20;99.90
1137;DHT22;557;48.466;7.950;2023-03-25T04:06:23;8.20;99.90
1137;DHT22;557;48.466;7.950;2023-03-25T04:09:16;8.30;99.90
1137;DHT22;557;48.466;7.950;2023-03-25T04:12:15;8.30;99.90
1137;DHT22;557;48.466;7.950;2023-03-25T04:15:05;8.30;99.90
1137;DHT22;557;48.466;7.950;2023-03-25T04:17:52;8.30;99.90
1137;DHT22;557;48.466;7.950;2023-03-25T04:20:40;8.30;99.90
1137;DHT22;557;48.466;7.950;2023-03-25T04:23:30;8.20;99.60
1137;DHT22;557;48.466;7.950;2023-03-25T04:26:19;8.20;92.50
1137;DHT22;557;48.466;7.950;2023-03-25T04:29:11;8.10;99.90
1137;DHT22;557;48.466;7.950;2023-03-25T04:32:00;8.10;80.10
1137;DHT22;557;48.466;7.950;2023-03-25T04:34:47;8.10;90.30
1137;DHT22;557;48.466;7.950;2023-03-25T04:37:35;8.00;99.90
1137;DHT22;557;48.466;7.950;2023-03-25T04:40:24;8.00;92.20
1137;DHT22;557;48.466;7.950;2023-03-25T04:43:12;8.00;93.00
1137;DHT22;557;48.466;7.950;2023-03-25T04:45:59;8.00;83.60
1137;DHT22;557;48.466;7.950;2023-03-25T04:48:47;8.00;76.70
1137;DHT22;557;48.466;7.950;2023-03-25T04:51:34;8.00;42.70
1137;DHT22;557;48.466;7.950;2023-03-25T04:54:22;8.00;35.00
1137;DHT22;557;48.466;7.950;2023-03-25T04:57:11;8.00;33.20
1137;DHT22;557;48.466;7.950;2023-03-25T04:59:59;8.10;37.20
1137;DHT22;557;48.466;7.950;2023-03-25T05:02:48;8.10;33.80
1137;DHT22;557;48.466;7.950;2023-03-25T05:05:35;8.20;3.40
1137;DHT22;557;48.466;7.950;2023-03-25T05:08:23;8.20;1.00
1137;DHT22;557;48.466;7.950;2023-03-25T05:11:10;8.20;1.00
1137;DHT22;557;48.466;7.950;2023-03-25T05:13:59;8.30;1.00
1137;DHT22;557;48.466;7.950;2023-03-25T05:16:47;8.20;1.00
1137;DHT22;557;48.466;7.950;2023-03-25T05:19:34;8.20;1.00
1137;DHT22;557;48.466;7.950;2023-03-25T05:22:23;8.20;1.00
1137;DHT22;557;48.466;7.950;2023-03-25T05:25:10;8.20;2.90
1137;DHT22;557;48.466;7.950;2023-03-25T05:27:59;8.20;1.00
1137;DHT22;557;48.466;7.950;2023-03-25T05:30:52;8.10;1.00
1137;DHT22;557;48.466;7.950;2023-03-25T05:33:40;8.10;1.00
1137;DHT22;557;48.466;7.950;2023-03-25T05:36:28;8.20;1.00
1137;DHT22;557;48.466;7.950;2023-03-25T05:39:16;8.20;5.50
1137;DHT22;557;48.466;7.950;2023-03-25T05:42:04;8.20;1.00
1137;DHT22;557;48.466;7.950;2023-03-25T05:44:52;8.20;1.60
1137;DHT22;557;48.466;7.950;2023-03-25T05:47:41;8.20;1.00
1137;DHT22;557;48.466;7.950;2023-03-25T05:50:29;8.20;1.00
1137;DHT22;557;48.466;7.950;2023-03-25T05:53:16;8.20;1.00
1137;DHT22;557;48.466;7.950;2023-03-25T05:56:06;8.20;1.00
1137;DHT22;557;48.466;7.950;2023-03-25T05:58:54;8.30;4.80
1137;DHT22;557;48.466;7.950;2023-03-25T06:01:42;8.20;15.70
1137;DHT22;557;48.466;7.950;2023-03-25T06:04:32;8.20;52.00
1137;DHT22;557;48.466;7.950;2023-03-25T06:07:22;8.00;99.90
1137;DHT22;557;48.466;7.950;2023-03-25T06:10:11;7.90;99.90
1137;DHT22;557;48.466;7.950;2023-03-25T06:13:02;7.90;96.20
1137;DHT22;557;48.466;7.950;2023-03-25T06:15:49;8.00;99.90
1137;DHT22;557;48.466;7.950;2023-03-25T06:18:41;7.90;99.90
1137;DHT22;557;48.466;7.950;2023-03-25T06:21:30;7.90;99.90
1137;DHT22;557;48.466;7.950;2023-03-25T06:24:18;7.90;99.90
1137;DHT22;557;48.466;7.950;2023-03-25T06:27:07;7.90;99.90
1137;DHT22;557;48.466;7.950;2023-03-25T06:29:54;7.90;99.90
1137;DHT22;557;48.466;7.950;2023-03-25T06:32:42;7.90;99.90
1137;DHT22;557;48.466;7.950;2023-03-25T06:35:29;8.00;99.90
1137;DHT22;557;48.466;7.950;2023-03-25T06:38:20;8.00;99.90
1137;DHT22;557;48.466;7.950;2023-03-25T06:41:07;8.10;99.90
1137;DHT22;557;48.466;7.950;2023-03-25T06:43:55;8.10;99.90
1137;DHT22;557;48.466;7.950;2023-03-25T06:46:42;8.20;99.90
1137;DHT22;557;48.466;7.950;2023-03-25T06:49:30;8.20;99.90
1137;DHT22;557;48.466;7.950;2023-03-25T06:52:17;8.30;97.60
1137;DHT22;557;48.466;7.950;2023-03-25T06:55:07;8.20;99.90
1137;DHT22;557;48.466;7.950;2023-03-25T06:57:54;8.30;99.90
1137;DHT22;557;48.466;7.950;2023-03-25T07:00:42;8.40;92.90
1137;DHT22;557;48.466;7.950;2023-03-25T07:03:30;8.50;46.60
1137;DHT22;557;48.466;7.950;2023-03-25T07:06:20;8.50;75.30
1137;DHT22;557;48.466;7.950;2023-03-25T07:09:07;8.50;36.60
1137;DHT22;557;48.466;7.950;2023-03-25T07:11:56;8.60;49.10
1137;DHT22;557;48.466;7.950;2023-03-25T07:14:43;8.50;50.40
1137;DHT22;557;48.466;7.950;2023-03-25T07:17:36;8.50;41.20
1137;DHT22;557;48.466;7.950;2023-03-25T07:20:23;8.40;94.40
1137;DHT22;557;48.466;7.950;2023-03-25T07:23:10;8.40;99.90
1137;DHT22;557;48.466;7.950;2023-03-25T07:25:59;8.40;99.90
1137;DHT22;557;48.466;7.950;2023-03-25T07:28:47;8.40;99.90
1137;DHT22;557;48.466;7.950;2023-03-25T07:31:35;8.40;99.90
1137;DHT22;557;48.466;7.950;2023-03-25T07:34:23;8.50;99.90
1137;DHT22;557;48.466;7.950;2023-03-25T07:37:11;8.50;99.90
1137;DHT22;557;48.466;7.950;2023-03-25T07:39:58;8.50;99.90
1137;DHT22;557;48.466;7.950;2023-03-25T07:42:45;8.50;99.90
1137;DHT22;557;48.466;7.950;2023-03-25T07:45:34;8.50;99.90
1137;DHT22;557;48.466;7.950;2023-03-25T07:48:21;8.50;99.90
1137;DHT22;557;48.466;7.950;2023-03-25T07:51:09;8.50;99.90
1137;DHT22;557;48.466;7.950;2023-03-25T07:53:56;8.50;99.90
1137;DHT22;557;48.466;7.950;2023-03-25T07:56:43;8.50;99.90
1137;DHT22;557;48.466;7.950;2023-03-25T07:59:31;8.50;99.90
1137;DHT22;557;48.466;7.950;2023-03-25T08:02:19;8.50;99.90
1137;DHT22;557;48.466;7.950;2023-03-25T08:05:07;8.70;99.90
1137;DHT22;557;48.466;7.950;2023-03-25T08:07:54;8.70;99.90
1137;DHT22;557;48.466;7.950;2023-03-25T08:10:45;8.90;99.90
1137;DHT22;557;48.466;7.950;2023-03-25T08:13:33;8.90;99.90
1137;DHT22;557;48.466;7.950;2023-03-25T08:16:20;9.00;99.90
1137;DHT22;557;48.466;7.950;2023-03-25T08:19:09;9.10;99.90
1137;DHT22;557;48.466;7.950;2023-03-25T08:21:56;9.10;99.90
1137;DHT22;557;48.466;7.950;2023-03-25T08:24:43;9.20;83.30
1137;DHT22;557;48.466;7.950;2023-03-25T08:27:31;9.30;99.90
1137;DHT22;557;48.466;7.950;2023-03-25T08:30:18;9.40;99.50
1137;DHT22;557;48.466;7.950;2023-03-25T08:33:06;9.50;35.00
1137;DHT22;557;48.466;7.950;2023-03-25T08:35:55;9.60;43.60
1137;DHT22;557;48.466;7.950;2023-03-25T08:38:43;9.70;3.50
1137;DHT22;557;48.466;7.950;2023-03-25T08:41:30;9.90;9.30
1137;DHT22;557;48.466;7.950;2023-03-25T08:44:17;10.00;1.00
1137;DHT22;557;48.466;7.950;2023-03-25T08:47:05;10.10;1.00
1137;DHT22;557;48.466;7.950;2023-03-25T08:49:52;10.00;1.00
1137;DHT22;557;48.466;7.950;2023-03-25T08:52:41;10.10;1.00
1137;DHT22;557;48.466;7.950;2023-03-25T08:55:28;10.20;1.00
1137;DHT22;557;48.466;7.950;2023-03-25T08:58:15;10.20;1.00
1137;DHT22;557;48.466;7.950;2023-03-25T09:01:03;10.30;1.00
1137;DHT22;557;48.466;7.950;2023-03-25T09:03:51;10.30;1.00
1137;DHT22;557;48.466;7.950;2023-03-25T09:06:40;10.40;1.00
1137;DHT22;557;48.466;7.950;2023-03-25T09:09:29;10.40;1.00
1137;DHT22;557;48.466;7.950;2023-03-25T09:12:17;10.50;1.00
1137;DHT22;557;48.466;7.950;2023-03-25T09:15:05;10.70;1.00
1137;DHT22;557;48.466;7.950;2023-03-25T09:17:52;11.00;1.00
1137;DHT22;557;48.466;7.950;2023-03-25T09:20:40;11.10;1.00
1137;DHT22;557;48.466;7.950;2023-03-25T09:23:28;11.00;1.00
1137;DHT22;557;48.466;7.950;2023-03-25T09:26:16;11.00;1.00
1137;DHT22;557;48.466;7.950;2023-03-25T09:29:04;11.00;1.00
1137;DHT22;557;48.466;7.950;2023-03-25T09:31:51;10.90;1.00
1137;DHT22;557;48.466;7.950;2023-03-25T09:34:38;11.00;1.00
1137;DHT22;557;48.466;7.950;2023-03-25T09:37:26;11.00;1.00
1137;DHT22;557;48.466;7.950;2023-03-25T09:40:15;11.20;1.00
1137;DHT22;557;48.466;7.950;2023-03-25T09:43:20;11.10;99.90
1137;DHT22;557;48.466;7.950;2023-03-25T09:46:10;11.20;1.00
1137;DHT22;557;48.466;7.950;2023-03-25T09:48:58;11.40;99.90
1137;DHT22;557;48.466;7.950;2023-03-25T09:51:48;11.40;99.90
1137;DHT22;557;48.466;7.950;2023-03-25T09:54:47;11.60;1.00
1137;DHT22;557;48.466;7.950;2023-03-25T09:57:43;11.90;1.00
1137;DHT22;557;48.466;7.950;2023-03-25T10:00:35;11.80;1.00
1137;DHT22;557;48.466;7.950;2023-03-25T10:03:25;11.60;1.00
1137;DHT22;557;48.466;7.950;2023-03-25T10:06:16;11.40;99.90
1137;DHT22;557;48.466;7.950;2023-03-25T10:09:19;11.20;1.00
1137;DHT22;557;48.466;7.950;2023-03-25T10:12:25;11.00;1.00
1137;DHT22;557;48.466;7.950;2023-03-25T10:15:24;10.80;99.90
1137;DHT22;557;48.466;7.950;2023-03-25T10:18:32;10.80;1.00
1137;DHT22;557;48.466;7.950;2023-03-25T10:21:26;11.00;99.90
1137;DHT22;557;48.466;7.950;2023-03-25T10:24:21;11.00;64.40
1137;DHT22;557;48.466;7.950;2023-03-25T10:27:14;11.20;1.00
1137;DHT22;557;48.466;7.950;2023-03-25T10:30:12;11.40;99.90
1137;DHT22;557;48.466;7.950;2023-03-25T10:33:02;11.80;1.00
1137;DHT22;557;48.466;7.950;2023-03-25T10:35:53;12.30;99.90
1137;DHT22;557;48.466;7.950;2023-03-25T10:38:42;12.30;99.90
1137;DHT22;557;48.466;7.950;2023-03-25T10:41:32;12.70;99.90
1137;DHT22;557;48.466;7.950;2023-03-25T10:44:25;12.70;1.00
1137;DHT22;557;48.466;7.950;2023-03-25T10:47:15;12.30;1.00
1137;DHT22;557;48.466;7.950;2023-03-25T10:50:05;12.10;1.00
1137;DHT22;557;48.466;7.950;2023-03-25T10:52:55;12.00;1.00
1137;DHT22;557;48.466;7.950;2023-03-25T10:55:43;12.10;1.00
1137;DHT22;557;48.466;7.950;2023-03-25T10:58:34;12.10;99.90
1137;DHT22;557;48.466;7.950;2023-03-25T11:01:33;12.10;99.90
1137;DHT22;557;48.466;7.950;2023-03-25T11:04:25;12.10;99.90
1137;DHT22;557;48.466;7.950;2023-03-25T11:07:17;12.30;99.90
1137;DHT22;557;48.466;7.950;2023-03-25T11:10:19;12.40;99.90
1137;DHT22;557;48.466;7.950;2023-03-25T11:13:11;12.30;99.90
1137;DHT22;557;48.466;7.950;2023-03-25T11:16:02;12.30;99.90
1137;DHT22;557;48.466;7.950;2023-03-25T11:18:50;12.20;99.90
1137;DHT22;557;48.466;7.950;2023-03-25T11:21:39;12.10;99.90
1137;DHT22;557;48.466;7.950;2023-03-25T11:24:30;11.90;99.90
1137;DHT22;557;48.466;7.950;2023-03-25T11:27:21;11.90;1.00
1137;DHT22;557;48.466;7.950;2023-03-25T11:30:16;12.10;1.00
1137;DHT22;557;48.466;7.950;2023-03-25T11:33:05;12.30;99.90
1137;DHT22;557;48.466;7.950;2023-03-25T11:35:53;12.10;99.90
1137;DHT22;557;48.466;7.950;2023-03-25T11:38:40;12.00;99.90
1137;DHT22;557;48.466;7.950;2023-03-25T11:41:33;12.00;99.90
1137;DHT22;557;48.466;7.950;2023-03-25T11:44:26;12.10;99.90
1137;DHT22;557;48.466;7.950;2023-03-25T11:47:20;12.80;99.90
1137;DHT22;557;48.466;7.950;2023-03-25T11:50:19;12.50;99.90
1137;DHT22;557;48.466;7.950;2023-03-25T11:53:11;12.50;99.90
1137;DHT22;557;48.466;7.950;2023-03-25T11:56:02;12.30;99.90
1137;DHT22;557;48.466;7.950;2023-03-25T11:58:51;12.30;1.00
1137;DHT22;557;48.466;7.950;2023-03-25T12:01:46;12.30;99.90
1137;DHT22;557;48.466;7.950;2023-03-25T12:04:33;12.00;99.90
1137;DHT22;557;48.466;7.950;2023-03-25T12:07:22;12.00;99.90
1137;DHT22;557;48.466;7.950;2023-03-25T12:10:16;12.00;99.90
1137;DHT22;557;48.466;7.950;2023-03-25T12:13:07;13.00;99.90
1137;DHT22;557;48.466;7.950;2023-03-25T12:16:04;13.40;99.90
1137;DHT22;557;48.466;7.950;2023-03-25T12:19:07;13.20;99.90
1137;DHT22;557;48.466;7.950;2023-03-25T12:22:08;13.80;99.90
1137;DHT22;557;48.466;7.950;2023-03-25T12:25:14;14.30;99.90
1137;DHT22;557;48.466;7.950;2023-03-25T12:28:41;14.70;99.90
1137;DHT22;557;48.466;7.950;2023-03-25T12:31:39;15.00;99.90
1137;DHT22;557;48.466;7.950;2023-03-25T12:34:38;15.20;99.90
1137;DHT22;557;48.466;7.950;2023-03-25T12:37:32;15.20;99.90
1137;DHT22;557;48.466;7.950;2023-03-25T12:40:32;15.60;99.90
1137;DHT22;557;48.466;7.950;2023-03-25T12:43:29;15.80;99.90
1137;DHT22;557;48.466;7.950;2023-03-25T12:46:27;16.00;99.90
1137;DHT22;557;48.466;7.950;2023-03-25T12:49:26;16.40;99.90
1137;DHT22;557;48.466;7.950;2023-03-25T12:52:22;15.90;99.90
1137;DHT22;557;48.466;7.950;2023-03-25T12:55:24;14.40;99.90
1137;DHT22;557;48.466;7.950;2023-03-25T12:58:36;13.90;99.90
1137;DHT22;557;48.466;7.950;2023-03-25T13:01:33;13.50;99.90
1137;DHT22;557;48.466;7.950;2023-03-25T13:04:43;13.30;99.90
1137;DHT22;557;48.466;7.950;2023-03-25T13:07:39;13.30;99.90
1137;DHT22;557;48.466;7.950;2023-03-25T13:10:33;13.60;99.90
1137;DHT22;557;48.466;7.950;2023-03-25T13:13:23;14.40;99.90
1137;DHT22;557;48.466;7.950;2023-03-25T13:16:14;15.00;99.90
1137;DHT22;557;48.466;7.950;2023-03-25T13:19:06;16.40;99.90
1137;DHT22;557;48.466;7.950;2023-03-25T13:21:57;17.50;99.90
1137;DHT22;557;48.466;7.950;2023-03-25T13:24:51;17.60;99.90
1137;DHT22;557;48.466;7.950;2023-03-25T13:27:40;18.60;99.90
1137;DHT22;557;48.466;7.950;2023-03-25T13:30:30;17.50;97.00
1137;DHT22;557;48.466;7.950;2023-03-25T13:33:22;16.60;99.90
1137;DHT22;557;48.466;7.950;2023-03-25T13:36:14;16.60;93.10
1137;DHT22;557;48.466;7.950;2023-03-25T13:39:06;17.00;94.50
1137;DHT22;557;48.466;7.950;2023-03-25T13:42:03;17.10;94.20
1137;DHT22;557;48.466;7.950;2023-03-25T13:44:55;17.40;94.90
1137;DHT22;557;48.466;7.950;2023-03-25T13:47:49;17.80;95.60
1137;DHT22;557;48.466;7.950;2023-03-25T13:50:37;16.90;92.80
1137;DHT22;557;48.466;7.950;2023-03-25T13:53:29;16.40;90.80
1137;DHT22;557;48.466;7.950;2023-03-25T14:03:48;13.60;99.90
1137;DHT22;557;48.466;7.950;2023-03-25T14:06:53;12.30;99.90
1137;DHT22;557;48.466;7.950;2023-03-25T14:10:01;11.50;99.90
1137;DHT22;557;48.466;7.950;2023-03-25T14:12:55;11.30;99.90
1137;DHT22;557;48.466;7.950;2023-03-25T14:15:53;11.40;99.90
1137;DHT22;557;48.466;7.950;2023-03-25T14:18:43;11.80;99.90
1137;DHT22;557;48.466;7.950;2023-03-25T14:21:40;12.60;1.00
1137;DHT22;557;48.466;7.950;2023-03-25T14:24:31;12.60;99.90
1137;DHT22;557;48.466;7.950;2023-03-25T14:27:22;12.40;1.00
1137;DHT22;557;48.466;7.950;2023-03-25T14:30:18;12.40;1.00
1137;DHT22;557;48.466;7.950;2023-03-25T14:33:08;12.80;1.00
1137;DHT22;557;48.466;7.950;2023-03-25T14:35:56;13.30;99.90
1137;DHT22;557;48.466;7.950;2023-03-25T14:38:52;13.70;99.90
1137;DHT22;557;48.466;7.950;2023-03-25T14:41:57;13.60;99.90
1137;DHT22;557;48.466;7.950;2023-03-25T14:44:48;13.80;99.90
1137;DHT22;557;48.466;7.950;2023-03-25T14:47:50;13.50;99.90
1137;DHT22;557;48.466;7.950;2023-03-25T14:50:37;13.60;99.90
1137;DHT22;557;48.466;7.950;2023-03-25T14:53:25;13.70;99.90
1137;DHT22;557;48.466;7.950;2023-03-25T14:56:18;14.00;99.90
1137;DHT22;557;48.466;7.950;2023-03-25T14:59:12;14.90;99.90
1137;DHT22;557;48.466;7.950;2023-03-25T15:02:03;15.20;99.90
1137;DHT22;557;48.466;7.950;2023-03-25T15:04:53;15.70;99.90
1137;DHT22;557;48.466;7.950;2023-03-25T15:07:44;16.60;99.90
1137;DHT22;557;48.466;7.950;2023-03-25T15:10:34;17.20;99.90
1137;DHT22;557;48.466;7.950;2023-03-25T15:13:28;17.50;99.90
1137;DHT22;557;48.466;7.950;2023-03-25T15:16:18;17.60;96.40
1137;DHT22;557;48.466;7.950;2023-03-25T15:19:13;17.70;94.90
1137;DHT22;557;48.466;7.950;2023-03-25T15:22:20;16.80;88.40
1137;DHT22;557;48.466;7.950;2023-03-25T15:25:14;16.20;82.10
1137;DHT22;557;48.466;7.950;2023-03-25T15:28:11;16.30;79.60
1137;DHT22;557;48.466;7.950;2023-03-25T15:31:15;17.40;85.10
1137;DHT22;557;48.466;7.950;2023-03-25T15:34:22;17.80;69.50
1137;DHT22;557;48.466;7.950;2023-03-25T15:40:46;17.90;59.20
1137;DHT22;557;48.466;7.950;2023-03-25T15:47:01;17.90;49.70
1137;DHT22;557;48.466;7.950;2023-03-25T15:50:17;17.80;45.40
1137;DHT22;557;48.466;7.950;2023-03-25T15:53:28;16.80;38.50
1137;DHT22;557;48.466;7.950;2023-03-25T15:56:20;15.40;31.20
1137;DHT22;557;48.466;7.950;2023-03-25T15:59:24;14.80;31.10
1137;DHT22;557;48.466;7.950;2023-03-25T16:02:30;14.40;33.40
1137;DHT22;557;48.466;7.950;2023-03-25T16:05:18;15.10;38.10
1137;DHT22;557;48.466;7.950;2023-03-25T16:08:08;16.80;53.90
1137;DHT22;557;48.466;7.950;2023-03-25T16:11:12;18.60;47.40
1137;DHT22;557;48.466;7.950;2023-03-25T16:14:06;19.20;42.50
1137;DHT22;557;48.466;7.950;2023-03-25T16:16:57;19.00;38.40
1137;DHT22;557;48.466;7.950;2023-03-25T16:19:48;16.20;24.60
1137;DHT22;557;48.466;7.950;2023-03-25T16:22:36;15.00;22.80
1137;DHT22;557;48.466;7.950;2023-03-25T16:25:31;14.20;22.60
1137;DHT22;557;48.466;7.950;2023-03-25T16:28:25;13.90;26.20
1137;DHT22;557;48.466;7.950;2023-03-25T16:31:28;13.70;28.90
1137;DHT22;557;48.466;7.950;2023-03-25T16:34:17;13.50;28.80
1137;DHT22;557;48.466;7.950;2023-03-25T16:37:08;13.40;33.00
1137;DHT22;557;48.466;7.950;2023-03-25T16:39:57;13.30;37.30
1137;DHT22;557;48.466;7.950;2023-03-25T16:42:44;13.20;42.70
1137;DHT22;557;48.466;7.950;2023-03-25T16:45:32;13.10;60.80
1137;DHT22;557;48.466;7.950;2023-03-25T16:48:24;12.50;99.90
1137;DHT22;557;48.466;7.950;2023-03-25T16:51:14;11.90;1.00
1137;DHT22;557;48.466;7.950;2023-03-25T16:54:08;11.50;1.00
1137;DHT22;557;48.466;7.950;2023-03-25T16:56:56;11.30;99.90
1137;DHT22;557;48.466;7.950;2023-03-25T16:59:45;11.20;1.00
1137;DHT22;557;48.466;7.950;2023-03-25T17:02:38;11.30;99.90
1137;DHT22;557;48.466;7.950;2023-03-25T17:05:28;11.40;99.90
1137;DHT22;557;48.466;7.950;2023-03-25T17:08:17;11.40;99.90
1137;DHT22;557;48.466;7.950;2023-03-25T17:11:08;11.40;99.90
1137;DHT22;557;48.466;7.950;2023-03-25T17:13:58;11.40;99.90
1137;DHT22;557;48.466;7.950;2023-03-25T17:16:49;11.50;33.30
1137;DHT22;557;48.466;7.950;2023-03-25T17:19:43;11.50;1.00
1137;DHT22;557;48.466;7.950;2023-03-25T17:22:33;11.50;1.00
1137;DHT22;557;48.466;7.950;2023-03-25T17:25:25;11.60;1.00
1137;DHT22;557;48.466;7.950;2023-03-25T17:28:25;11.60;1.00
1137;DHT22;557;48.466;7.950;2023-03-25T17:31:23;11.40;1.00
1137;DHT22;557;48.466;7.950;2023-03-25T17:34:12;11.40;1.00
1137;DHT22;557;48.466;7.950;2023-03-25T17:37:01;11.30;1.00
1137;DHT22;557;48.466;7.950;2023-03-25T17:39:48;11.20;1.00
1137;DHT22;557;48.466;7.950;2023-03-25T17:42:37;11.20;99.90
1137;DHT22;557;48.466;7.950;2023-03-25T17:45:26;11.10;99.90
1137;DHT22;557;48.466;7.950;2023-03-25T17:48:14;11.00;99.90
1137;DHT22;557;48.466;7.950;2023-03-25T17:51:03;11.00;99.90
1137;DHT22;557;48.466;7.950;2023-03-25T17:53:51;11.00;99.90
1137;DHT22;557;48.466;7.950;2023-03-25T17:56:38;10.90;99.90
1137;DHT22;557;48.466;7.950;2023-03-25T17:59:26;11.00;99.90
1137;DHT22;557;48.466;7.950;2023-03-25T18:02:15;11.00;1.00
1137;DHT22;557;48.466;7.950;2023-03-25T18:05:03;10.90;45.80
1137;DHT22;557;48.466;7.950;2023-03-25T18:07:52;10.80;54.50
1137;DHT22;557;48.466;7.950;2023-03-25T18:10:41;10.70;1.00
1137;DHT22;557;48.466;7.950;2023-03-25T18:13:29;10.60;1.00
1137;DHT22;557;48.466;7.950;2023-03-25T18:16:18;10.50;99.90
1137;DHT22;557;48.466;7.950;2023-03-25T18:19:10;10.50;1.00
1137;DHT22;557;48.466;7.950;2023-03-25T18:21:59;10.50;1.00
1137;DHT22;557;48.466;7.950;2023-03-25T18:24:46;10.50;99.90
1137;DHT22;557;48.466;7.950;2023-03-25T18:27:34;10.60;1.00
1137;DHT22;557;48.466;7.950;2023-03-25T18:30:25;10.60;99.90
1137;DHT22;557;48.466;7.950;2023-03-25T18:33:12;10.60;1.00
1137;DHT22;557;48.466;7.950;2023-03-25T18:36:02;10.50;99.90
1137;DHT22;557;48.466;7.950;2023-03-25T18:38:49;10.50;99.90
1137;DHT22;557;48.466;7.950;2023-03-25T18:41:37;10.50;95.70
1137;DHT22;557;48.466;7.950;2023-03-25T18:44:24;10.40;1.00
1137;DHT22;557;48.466;7.950;2023-03-25T18:47:13;10.50;56.50
1137;DHT22;557;48.466;7.950;2023-03-25T18:50:00;10.50;99.90
1137;DHT22;557;48.466;7.950;2023-03-25T18:52:49;10.60;1.00
1137;DHT22;557;48.466;7.950;2023-03-25T18:55:36;10.50;1.00
1137;DHT22;557;48.466;7.950;2023-03-25T18:58:25;10.50;1.00
1137;DHT22;557;48.466;7.950;2023-03-25T19:01:13;10.60;1.00
1137;DHT22;557;48.466;7.950;2023-03-25T19:04:01;10.60;1.00
1137;DHT22;557;48.466;7.950;2023-03-25T19:06:48;10.70;99.90
1137;DHT22;557;48.466;7.950;2023-03-25T19:09:38;10.60;1.00
1137;DHT22;557;48.466;7.950;2023-03-25T19:12:25;10.50;1.00
1137;DHT22;557;48.466;7.950;2023-03-25T19:15:14;10.30;1.00
1137;DHT22;557;48.466;7.950;2023-03-25T19:18:02;10.30;99.90
1137;DHT22;557;48.466;7.950;2023-03-25T19:20:49;10.30;99.90
1137;DHT22;557;48.466;7.950;2023-03-25T19:23:36;10.30;99.90
1137;DHT22;557;48.466;7.950;2023-03-25T19:26:28;10.40;99.90
1137;DHT22;557;48.466;7.950;2023-03-25T19:29:15;10.20;1.00
1137;DHT22;557;48.466;7.950;2023-03-25T19:32:02;10.20;99.90
1137;DHT22;557;48.466;7.950;2023-03-25T19:34:52;10.10;99.90